Time;durP1;ratioP1;P1;durP2;ratioP2;P2;SDS_P1;SDS_P2;PMS_P1;PMS_P2;Temp;Humidity;BMP_temperature;BMP_pressure;BME280_temperature;BME280_humidity;BME280_pressure;Samples;Min_cycle;Max_cycle;Signal;HPM_P1;HPM_P2
2021/08/10 00:01:42;;;;;;;22.60;8.45;;;;;;;13.19;100.00;101596.97;5227197;28;20021;-80
2021/08/10 00:04:13;;;;;;;18.98;8.38;;;;;;;13.33;100.00;101602.78;5226862;28;20493;-80
2021/08/10 00:06:43;;;;;;;23.50;9.23;;;;;;;13.38;100.00;101600.41;5227057;28;20546;-80
2021/08/10 00:09:14;;;;;;;23.05;8.32;;;;;;;13.41;100.00;101595.56;5226593;28;20385;-80
2021/08/10 00:11:44;;;;;;;18.27;8.18;;;;;;;13.45;100.00;101590.66;5226846;28;20024;-80
2021/08/10 00:14:15;;;;;;;23.08;9.20;;;;;;;13.51;100.00;101602.63;5226857;28;20024;-79
2021/08/10 00:16:45;;;;;;;17.00;7.30;;;;;;;13.55;100.00;101594.03;5226372;28;20060;-79
2021/08/10 00:19:16;;;;;;;18.63;7.95;;;;;;;13.57;100.00;101605.50;5226294;28;20043;-80
2021/08/10 00:21:46;;;;;;;20.45;7.28;;;;;;;13.62;100.00;101605.00;5226523;28;20029;-79
2021/08/10 00:24:17;;;;;;;17.60;6.65;;;;;;;13.67;100.00;101598.09;5227046;28;20021;-79
2021/08/10 00:26:47;;;;;;;17.02;7.00;;;;;;;13.72;100.00;101595.72;5224956;28;20525;-80
2021/08/10 00:29:18;;;;;;;17.63;6.85;;;;;;;13.76;100.00;101598.94;5226468;28;20028;-80
2021/08/10 00:31:48;;;;;;;23.27;7.55;;;;;;;13.85;100.00;101632.97;5226433;28;20151;-80
2021/08/10 00:34:19;;;;;;;24.27;6.50;;;;;;;13.90;100.00;101625.19;5226105;28;20033;-82
2021/08/10 00:36:49;;;;;;;15.95;6.63;;;;;;;13.99;100.00;101617.97;5225730;28;20025;-80
2021/08/10 00:39:20;;;;;;;12.80;5.72;;;;;;;14.04;100.00;101604.81;5225837;28;20433;-81
2021/08/10 00:41:50;;;;;;;16.75;5.60;;;;;;;14.09;100.00;101607.81;5226249;28;20040;-82
2021/08/10 00:44:21;;;;;;;13.43;4.82;;;;;;;14.09;100.00;101609.69;5226666;28;20033;-81
2021/08/10 00:46:51;;;;;;;20.40;5.90;;;;;;;14.07;100.00;101599.06;5225704;28;20021;-81
2021/08/10 00:49:22;;;;;;;22.92;7.30;;;;;;;14.07;100.00;101606.34;5225181;28;20086;-81
2021/08/10 00:51:52;;;;;;;12.55;4.95;;;;;;;14.12;100.00;101617.47;5224001;28;20541;-80
2021/08/10 00:54:24;;;;;;;12.35;5.57;;;;;;;14.12;100.00;101601.25;5224467;28;20442;-82
2021/08/10 00:56:55;;;;;;;16.63;5.15;;;;;;;14.17;100.00;101610.53;5224134;28;20445;-81
2021/08/10 00:59:26;;;;;;;16.80;5.78;;;;;;;14.24;100.00;101605.28;5223971;28;20029;-81
2021/08/10 01:01:56;;;;;;;10.38;4.80;;;;;;;14.23;100.00;101576.63;5223673;28;20113;-81
2021/08/10 01:04:27;;;;;;;22.75;7.03;;;;;;;14.26;100.00;101581.69;5223393;28;20025;-81
2021/08/10 01:07:19;;;;;;;14.80;6.38;;;;;;;14.24;100.00;101581.81;5222453;28;20048;-81
2021/08/10 01:09:53;;;;;;;14.77;5.72;;;;;;;14.25;100.00;101586.19;5222252;28;20033;-80
2021/08/10 01:12:30;;;;;;;8.95;5.30;;;;;;;14.20;100.00;101593.13;5221691;28;20376;-80
2021/08/10 01:15:09;;;;;;;9.02;4.22;;;;;;;14.16;100.00;101595.34;5222535;28;20024;-80
2021/08/10 01:17:57;;;;;;;8.98;4.25;;;;;;;14.11;100.00;101602.28;5221998;28;20074;-80
2021/08/10 01:20:51;;;;;;;11.70;4.60;;;;;;;14.04;100.00;101606.66;5221592;28;20044;-81
2021/08/10 01:23:26;;;;;;;9.65;4.28;;;;;;;14.05;100.00;101597.53;5222509;28;20021;-81
2021/08/10 01:26:18;;;;;;;9.38;4.63;;;;;;;14.01;100.00;101583.56;5221679;28;20017;-81
2021/08/10 01:29:10;;;;;;;13.45;4.43;;;;;;;13.89;100.00;101591.16;5222090;28;20055;-81
2021/08/10 01:31:42;;;;;;;9.25;4.03;;;;;;;13.84;100.00;101592.69;5204180;28;20067;-81
2021/08/10 01:34:18;;;;;;;8.63;4.10;;;;;;;13.79;100.00;101603.13;5204240;28;20053;-81
2021/08/10 01:36:51;;;;;;;9.50;4.50;;;;;;;13.73;100.00;101593.88;5221511;28;20524;-80
2021/08/10 01:39:25;;;;;;;9.93;3.92;;;;;;;13.70;100.00;101592.38;5221785;28;20021;-81
2021/08/10 01:41:56;;;;;;;9.50;4.07;;;;;;;13.64;100.00;101590.31;5221609;28;20094;-81
2021/08/10 01:44:27;;;;;;;12.68;4.32;;;;;;;13.60;100.00;101596.22;5221765;28;20255;-80
2021/08/10 01:47:00;;;;;;;9.82;4.65;;;;;;;13.50;100.00;101599.06;5221530;28;20501;-80
2021/08/10 01:49:31;;;;;;;8.07;3.97;;;;;;;13.45;100.00;101594.22;5221875;28;20436;-81
2021/08/10 01:52:04;;;;;;;9.38;4.22;;;;;;;13.42;100.00;101583.75;5221459;28;20024;-81
2021/08/10 01:54:37;;;;;;;7.63;3.95;;;;;;;13.40;100.00;101585.78;5203768;28;20116;-80
2021/08/10 01:57:11;;;;;;;7.20;3.97;;;;;;;13.36;100.00;101580.88;5209840;28;20052;-81
2021/08/10 01:59:56;;;;;;;10.45;3.92;;;;;;;13.36;100.00;101584.44;5224958;28;20054;-80
2021/08/10 02:02:27;;;;;;;9.48;4.40;;;;;;;13.34;100.00;101588.28;5225396;28;20059;-80
2021/08/10 02:05:01;;;;;;;9.20;4.50;;;;;;;13.26;100.00;101589.13;5224595;28;20036;-81
2021/08/10 02:07:32;;;;;;;8.07;3.72;;;;;;;13.22;100.00;101593.16;5224849;28;20418;-81
2021/08/10 02:10:04;;;;;;;8.88;3.92;;;;;;;13.17;100.00;101607.09;5205934;28;20088;-80
2021/08/10 02:12:37;;;;;;;9.23;4.32;;;;;;;13.11;100.00;101594.28;5224705;28;20265;-81
2021/08/10 02:15:08;;;;;;;10.90;3.92;;;;;;;13.02;100.00;101592.56;5225025;28;20031;-81
2021/08/10 02:17:39;;;;;;;9.18;3.92;;;;;;;13.01;100.00;101592.75;5225475;28;20056;-81
2021/08/10 02:20:12;;;;;;;5.90;3.33;;;;;;;13.01;100.00;101590.88;5224035;28;20136;-81
2021/08/10 02:22:46;;;;;;;11.80;4.40;;;;;;;12.94;100.00;101593.38;5223590;28;20036;-80
2021/08/10 02:25:22;;;;;;;10.15;4.13;;;;;;;12.90;100.00;101599.25;5221493;28;20025;-81
2021/08/10 02:28:02;;;;;;;14.20;4.47;;;;;;;12.84;100.00;101592.66;5221068;28;20028;-81
2021/08/10 02:30:36;;;;;;;9.95;4.03;;;;;;;12.75;100.00;101595.47;5213374;28;20494;-80
2021/08/10 02:33:09;;;;;;;10.95;4.65;;;;;;;12.66;100.00;101591.94;5220868;28;20485;-80
2021/08/10 02:35:41;;;;;;;11.63;4.95;;;;;;;12.59;100.00;101591.72;5221244;28;20067;-81
2021/08/10 02:38:16;;;;;;;11.70;4.38;;;;;;;12.60;100.00;101593.44;5221206;28;20033;-81
2021/08/10 02:40:50;;;;;;;9.85;4.78;;;;;;;12.57;100.00;101587.53;5220763;28;20039;-81
2021/08/10 02:43:23;;;;;;;14.10;4.90;;;;;;;12.47;100.00;101603.78;5220767;28;20055;-80
2021/08/10 02:45:54;;;;;;;12.45;5.07;;;;;;;12.43;100.00;101600.56;5221266;28;20035;-80
2021/08/10 02:48:31;;;;;;;11.77;5.47;;;;;;;12.40;100.00;101602.75;5221165;28;20071;-81
2021/08/10 02:51:01;;;;;;;9.73;4.70;;;;;;;12.39;100.00;101598.34;5221258;28;20013;-80
2021/08/10 02:53:32;;;;;;;13.68;5.05;;;;;;;12.34;100.00;101597.97;5221692;28;20102;-80
2021/08/10 02:56:16;;;;;;;12.52;4.70;;;;;;;12.28;100.00;101606.69;5220457;28;20024;-81
2021/08/10 02:58:55;;;;;;;11.05;5.15;;;;;;;12.23;100.00;101604.47;5221191;28;20095;-80
2021/08/10 03:01:31;;;;;;;13.88;5.28;;;;;;;12.16;100.00;101612.34;5219360;28;20070;-80
2021/08/10 03:04:03;;;;;;;14.48;5.43;;;;;;;12.11;100.00;101611.13;5219951;28;20036;-80
2021/08/10 03:06:34;;;;;;;13.65;5.63;;;;;;;12.12;100.00;101613.66;5221837;28;20089;-80
2021/08/10 03:09:06;;;;;;;11.23;4.80;;;;;;;12.06;100.00;101606.22;5225760;28;20104;-81
2021/08/10 03:11:40;;;;;;;11.90;5.80;;;;;;;12.00;100.00;101604.19;5225337;28;20074;-80
2021/08/10 03:14:12;;;;;;;16.35;5.85;;;;;;;11.96;100.00;101610.03;5225726;28;20077;-81
2021/08/10 03:16:45;;;;;;;13.25;5.78;;;;;;;11.91;100.00;101607.81;5225933;28;20028;-81
2021/08/10 03:19:16;;;;;;;12.93;4.75;;;;;;;11.87;100.00;101601.88;5225522;28;20067;-81
2021/08/10 03:21:47;;;;;;;14.32;5.57;;;;;;;11.90;100.00;101595.38;5226044;28;20052;-81
2021/08/10 03:24:19;;;;;;;20.25;7.20;;;;;;;11.84;100.00;101604.03;5225980;28;20028;-81
2021/08/10 03:26:51;;;;;;;16.90;5.75;;;;;;;11.77;100.00;101594.88;5225943;28;20170;-80
2021/08/10 03:29:23;;;;;;;12.52;5.03;;;;;;;11.68;100.00;101588.59;5225797;28;20040;-81
2021/08/10 03:31:54;;;;;;;11.68;5.35;;;;;;;11.59;100.00;101584.13;5225537;28;20017;-80
2021/08/10 03:34:25;;;;;;;14.70;5.55;;;;;;;11.53;100.00;101585.59;5226463;28;20020;-80
2021/08/10 03:36:56;;;;;;;12.45;5.63;;;;;;;11.47;100.00;101582.69;5225897;28;20028;-80
2021/08/10 03:39:28;;;;;;;13.45;5.30;;;;;;;11.42;100.00;101580.47;5225971;28;20020;-80
2021/08/10 03:42:00;;;;;;;9.70;4.80;;;;;;;11.38;100.00;101579.09;5225907;28;20047;-80
2021/08/10 03:44:31;;;;;;;13.73;4.60;;;;;;;11.35;100.00;101592.84;5225969;28;20107;-81
2021/08/10 03:47:02;;;;;;;31.92;4.95;;;;;;;11.31;100.00;101583.41;5225649;28;20052;-80
2021/08/10 03:49:33;;;;;;;8.57;3.53;;;;;;;11.27;100.00;101585.53;5226611;28;20071;-81
2021/08/10 03:52:04;;;;;;;10.20;3.55;;;;;;;11.24;100.00;101587.66;5224606;28;20021;-81
2021/08/10 03:54:35;;;;;;;66.13;5.82;;;;;;;11.19;100.00;101576.53;5225906;28;20021;-80
2021/08/10 03:57:07;;;;;;;89.85;5.78;;;;;;;11.17;100.00;101575.88;5212727;28;20028;-80
2021/08/10 03:59:38;;;;;;;79.60;3.42;;;;;;;11.15;100.00;101574.19;5225980;28;20048;-81
2021/08/10 04:02:09;;;;;;;74.93;4.03;;;;;;;11.14;100.00;101580.56;5226022;28;20451;-80
2021/08/10 04:04:42;;;;;;;8.88;3.05;;;;;;;11.13;100.00;101583.38;5223099;28;20051;-80
2021/08/10 04:07:13;;;;;;;8.95;3.80;;;;;;;11.13;100.00;101581.53;5221714;28;20452;-80
2021/08/10 04:09:44;;;;;;;11.18;4.38;;;;;;;11.18;100.00;101593.66;5220939;28;20033;-80
2021/08/10 04:12:15;;;;;;;10.80;4.00;;;;;;;11.18;100.00;101588.28;5220961;28;20379;-80
2021/08/10 04:14:45;;;;;;;8.65;3.75;;;;;;;11.18;100.00;101589.13;5220965;28;20048;-80
2021/08/10 04:17:16;;;;;;;13.70;5.80;;;;;;;11.20;100.00;101595.22;5220200;28;20541;-79
2021/08/10 04:19:49;;;;;;;16.42;6.35;;;;;;;11.25;100.00;101605.50;5207815;28;20082;-80
2021/08/10 04:22:20;;;;;;;18.60;6.93;;;;;;;11.35;100.00;101608.97;5220552;28;20284;-80
2021/08/10 04:24:51;;;;;;;16.83;6.72;;;;;;;11.40;100.00;101614.72;5220392;28;20074;-81
2021/08/10 04:27:21;;;;;;;19.92;7.43;;;;;;;11.43;100.00;101617.09;5223018;28;20414;-80
2021/08/10 04:29:52;;;;;;;19.00;7.20;;;;;;;11.47;100.00;101615.78;5219681;28;20101;-80
2021/08/10 04:32:23;;;;;;;17.25;7.35;;;;;;;11.50;100.00;101604.75;5220946;28;20087;-80
2021/08/10 04:34:53;;;;;;;17.90;7.75;;;;;;;11.59;100.00;101608.31;5224275;28;20027;-80
2021/08/10 04:37:24;;;;;;;22.65;8.35;;;;;;;11.72;100.00;101613.31;5223748;28;20024;-80
2021/08/10 04:39:54;;;;;;;21.63;7.90;;;;;;;11.91;100.00;101611.34;5223124;28;20110;-80
2021/08/10 04:42:25;;;;;;;19.88;7.45;;;;;;;12.05;100.00;101619.81;5223132;28;20037;-81
2021/08/10 04:44:55;;;;;;;14.07;6.95;;;;;;;12.19;100.00;101619.25;5223048;28;20052;-80
2021/08/10 04:47:25;;;;;;;16.42;7.15;;;;;;;12.29;100.00;101616.44;5222927;28;20037;-80
2021/08/10 04:49:57;;;;;;;17.48;7.72;;;;;;;12.35;100.00;101605.91;5223030;28;20029;-80
2021/08/10 04:52:28;;;;;;;21.80;7.65;;;;;;;12.43;100.00;101618.56;5222382;28;20029;-81
2021/08/10 04:54:58;;;;;;;21.17;7.72;;;;;;;12.54;100.00;101617.44;5222554;28;20027;-80
2021/08/10 04:57:29;;;;;;;22.95;7.78;;;;;;;12.60;100.00;101614.97;5222577;28;20033;-81
2021/08/10 05:00:00;;;;;;;17.20;8.23;;;;;;;12.67;100.00;101620.53;5222673;28;20029;-80
2021/08/10 05:02:31;;;;;;;18.35;7.97;;;;;;;12.73;100.00;101614.50;5222341;28;20478;-81
2021/08/10 05:05:01;;;;;;;18.52;7.20;;;;;;;12.77;100.00;101621.25;5221853;28;20075;-81
2021/08/10 05:07:32;;;;;;;18.73;6.57;;;;;;;12.78;100.00;101614.03;5204160;28;20021;-81
2021/08/10 05:10:03;;;;;;;21.75;7.88;;;;;;;12.81;100.00;101621.78;5223047;28;20512;-80
2021/08/10 05:12:36;;;;;;;16.13;7.22;;;;;;;12.84;100.00;101616.06;5223571;28;20059;-80
2021/08/10 05:15:07;;;;;;;20.27;6.75;;;;;;;12.85;100.00;101618.63;5225175;28;20441;-81
2021/08/10 05:17:37;;;;;;;17.60;7.53;;;;;;;12.92;100.00;101626.88;5224004;28;20028;-81
2021/08/10 05:20:09;;;;;;;27.33;7.43;;;;;;;12.99;100.00;101622.50;5224421;28;20039;-81
2021/08/10 05:22:41;;;;;;;24.02;7.50;;;;;;;13.06;100.00;101618.19;5226135;28;20371;-81
2021/08/10 05:25:11;;;;;;;18.60;7.82;;;;;;;13.14;100.00;101628.94;5227149;28;20032;-81
2021/08/10 05:27:42;;;;;;;17.25;7.88;;;;;;;13.21;100.00;101627.34;5224992;28;20021;-81
2021/08/10 05:30:13;;;;;;;22.10;8.73;;;;;;;13.28;100.00;101632.91;5200380;28;20148;-81
2021/08/10 05:32:43;;;;;;;23.38;7.68;;;;;;;13.35;100.00;101633.06;5224937;28;20032;-81
2021/08/10 05:35:14;;;;;;;20.88;8.05;;;;;;;13.39;100.00;101643.38;5225613;28;20429;-82
2021/08/10 05:37:45;;;;;;;22.77;8.43;;;;;;;13.42;100.00;101643.03;5227393;28;20510;-82
2021/08/10 05:40:15;;;;;;;17.52;7.22;;;;;;;13.46;100.00;101649.78;5226854;28;20442;-79
2021/08/10 05:42:46;;;;;;;20.20;7.55;;;;;;;13.53;100.00;101644.56;5226921;28;20021;-81
2021/08/10 05:45:17;;;;;;;19.02;8.63;;;;;;;13.64;100.00;101654.19;5227671;28;20021;-80
2021/08/10 05:47:47;;;;;;;17.27;7.25;;;;;;;13.70;100.00;101659.78;5227640;28;20159;-79
2021/08/10 05:50:18;;;;;;;21.30;8.40;;;;;;;13.78;100.00;101652.69;5227326;28;20116;-79
2021/08/10 05:52:49;;;;;;;21.52;8.25;;;;;;;13.87;100.00;101657.94;5227231;28;20358;-79
2021/08/10 05:55:20;;;;;;;16.20;8.05;;;;;;;13.94;100.00;101648.13;5226714;28;20020;-79
2021/08/10 05:57:50;;;;;;;17.73;8.43;;;;;;;14.07;100.00;101649.50;5227247;28;20025;-78
2021/08/10 06:00:21;;;;;;;20.58;8.15;;;;;;;14.13;100.00;101646.13;5209688;28;20122;-80
2021/08/10 06:02:53;;;;;;;17.42;7.43;;;;;;;14.15;100.00;101641.38;5226909;28;20017;-79
2021/08/10 06:05:24;;;;;;;18.13;7.05;;;;;;;14.16;100.00;101652.03;5226917;28;20025;-80
2021/08/10 06:07:54;;;;;;;17.98;7.00;;;;;;;14.14;100.00;101647.78;5226583;28;20055;-79
2021/08/10 06:10:25;;;;;;;16.42;7.50;;;;;;;14.23;100.00;101646.78;5226165;28;20016;-80
2021/08/10 06:12:56;;;;;;;21.42;7.88;;;;;;;14.71;100.00;101656.66;5226762;28;20497;-81
2021/08/10 06:15:27;;;;;;;18.30;7.63;;;;;;;15.74;100.00;101667.28;5226165;28;20031;-80
2021/08/10 06:17:57;;;;;;;17.83;5.90;;;;;;;16.33;100.00;101669.34;5226513;28;20021;-86
2021/08/10 06:20:28;;;;;;;14.52;5.55;;;;;;;16.46;100.00;101668.69;5223577;28;20021;-88
2021/08/10 06:23:01;;;;;;;12.05;5.40;;;;;;;16.31;100.00;101657.84;5224761;28;20478;-82
2021/08/10 06:25:31;;;;;;;11.57;5.45;;;;;;;16.00;100.00;101658.81;5226013;28;20038;-81
2021/08/10 06:28:02;;;;;;;10.90;5.60;;;;;;;15.82;100.00;101649.34;5226912;28;20100;-81
2021/08/10 06:30:32;;;;;;;11.27;5.25;;;;;;;15.54;100.00;101661.47;5225901;28;20040;-81
2021/08/10 06:33:03;;;;;;;13.25;5.72;;;;;;;15.56;100.00;101655.88;5226887;28;20052;-81
2021/08/10 06:35:33;;;;;;;12.27;5.47;;;;;;;15.45;100.00;101649.03;5226024;28;20139;-81
2021/08/10 06:38:04;;;;;;;11.65;6.00;;;;;;;15.52;100.00;101658.13;5227051;28;20092;-80
2021/08/10 06:40:34;;;;;;;12.00;5.70;;;;;;;15.62;100.00;101654.34;5225701;28;20052;-81
2021/08/10 06:43:05;;;;;;;12.15;5.60;;;;;;;15.48;100.00;101654.09;5208294;28;20032;-81
2021/08/10 06:45:36;;;;;;;13.27;5.80;;;;;;;15.52;100.00;101654.59;5225726;28;20060;-80
2021/08/10 06:48:07;;;;;;;15.82;5.82;;;;;;;15.53;100.00;101650.84;5207964;28;20025;-81
2021/08/10 06:50:38;;;;;;;14.63;6.35;;;;;;;15.49;100.00;101652.22;5213311;28;20533;-80
2021/08/10 06:53:08;;;;;;;11.82;5.93;;;;;;;15.58;100.00;101655.72;5206790;28;20044;-81
2021/08/10 06:55:38;;;;;;;13.50;6.47;;;;;;;15.64;100.00;101655.88;5224148;28;20025;-79
2021/08/10 06:58:09;;;;;;;14.50;6.57;;;;;;;15.82;100.00;101657.44;5224088;28;20029;-81
2021/08/10 07:00:40;;;;;;;13.25;5.80;;;;;;;15.92;100.00;101660.75;5223977;28;20057;-82
2021/08/10 07:03:10;;;;;;;12.70;5.93;;;;;;;15.95;100.00;101657.66;5206640;28;20385;-81
2021/08/10 07:05:41;;;;;;;14.20;6.13;;;;;;;16.13;100.00;101655.50;5223995;28;20103;-81
2021/08/10 07:08:11;;;;;;;16.05;5.70;;;;;;;16.18;100.00;101650.38;5224618;28;20482;-82
2021/08/10 07:10:42;;;;;;;17.50;5.72;;;;;;;16.36;100.00;101649.16;5207009;28;20041;-81
2021/08/10 07:13:13;;;;;;;15.45;5.95;;;;;;;16.44;100.00;101649.09;5225166;28;20074;-81
2021/08/10 07:15:43;;;;;;;13.77;5.75;;;;;;;16.69;100.00;101636.13;5224125;28;20119;-81
2021/08/10 07:18:13;;;;;;;13.93;5.93;;;;;;;16.82;100.00;101637.19;5211287;28;20033;-82
2021/08/10 07:20:44;;;;;;;9.13;4.75;;;;;;;16.92;100.00;101644.16;5223272;28;20060;-81
2021/08/10 07:23:14;;;;;;;11.90;5.05;;;;;;;17.05;100.00;101652.47;5224752;28;20024;-81
2021/08/10 07:25:45;;;;;;;10.10;5.00;;;;;;;17.14;100.00;101647.78;5224311;28;20043;-82
2021/08/10 07:28:15;;;;;;;15.25;5.32;;;;;;;17.15;100.00;101653.00;5224596;28;20024;-81
2021/08/10 07:30:46;;;;;;;11.73;5.15;;;;;;;17.15;100.00;101653.00;5222424;28;20035;-80
2021/08/10 07:33:16;;;;;;;13.43;5.13;;;;;;;17.21;100.00;101643.28;5223831;28;20087;-81
2021/08/10 07:35:47;;;;;;;11.77;5.30;;;;;;;17.20;100.00;101647.03;5224119;28;20379;-80
2021/08/10 07:38:17;;;;;;;15.23;5.78;;;;;;;17.30;100.00;101653.81;5222834;28;20024;-81
2021/08/10 07:40:50;;;;;;;10.52;4.78;;;;;;;17.52;100.00;101649.28;5204754;28;20059;-82
2021/08/10 07:43:20;;;;;;;13.07;5.63;;;;;;;17.78;100.00;101647.91;5224137;28;20024;-82
2021/08/10 07:45:51;;;;;;;10.77;4.95;;;;;;;18.09;100.00;101644.81;5206445;28;20294;-82
2021/08/10 07:48:21;;;;;;;10.38;4.70;;;;;;;18.43;100.00;101656.78;5222669;28;20025;-81
2021/08/10 07:50:52;;;;;;;9.65;5.03;;;;;;;18.45;100.00;101647.38;5222728;28;20115;-81
2021/08/10 07:53:23;;;;;;;9.00;4.72;;;;;;;18.60;100.00;101647.28;5188814;28;20021;-82
2021/08/10 07:55:54;;;;;;;9.57;4.80;;;;;;;18.49;100.00;101656.00;5222546;28;20036;-81
2021/08/10 07:58:24;;;;;;;9.43;4.70;;;;;;;18.78;100.00;101655.78;5222997;28;20025;-81
2021/08/10 08:00:55;;;;;;;11.90;4.97;;;;;;;18.75;100.00;101658.88;5222800;28;20613;-81
2021/08/10 08:03:25;;;;;;;10.23;4.50;;;;;;;18.91;100.00;101652.28;5222777;28;20052;-82
2021/08/10 08:05:56;;;;;;;12.57;4.28;;;;;;;18.67;100.00;101648.13;5222188;28;20482;-80
2021/08/10 08:08:28;;;;;;;10.68;4.55;;;;;;;18.99;100.00;101663.00;5222034;28;20079;-82
2021/08/10 08:10:59;;;;;;;6.45;3.60;;;;;;;19.21;100.00;101665.59;5221723;28;20524;-82
2021/08/10 08:13:29;;;;;;;11.70;4.50;;;;;;;19.32;100.00;101663.13;5222298;28;20028;-80
2021/08/10 08:16:00;;;;;;;9.27;4.32;;;;;;;19.28;100.00;101658.31;5221638;28;20021;-80
2021/08/10 08:18:30;;;;;;;7.55;3.67;;;;;;;19.54;100.00;101661.09;5222197;28;20112;-82
2021/08/10 08:21:01;;;;;;;7.90;3.70;;;;;;;20.03;100.00;101659.09;5221306;28;20382;-81
2021/08/10 08:23:31;;;;;;;10.35;3.83;;;;;;;20.21;100.00;101655.75;5233986;28;20041;-81
2021/08/10 08:26:02;;;;;;;6.13;3.30;;;;;;;20.22;100.00;101662.88;5228466;28;20040;-81
2021/08/10 08:28:34;;;;;;;7.45;3.60;;;;;;;20.47;100.00;101654.91;5228024;28;20017;-80
2021/08/10 08:31:04;;;;;;;9.27;3.50;;;;;;;20.18;100.00;101657.84;5227470;28;20298;-82
2021/08/10 08:33:35;;;;;;;11.13;3.35;;;;;;;20.09;100.00;101661.00;5227720;28;20017;-81
2021/08/10 08:36:05;;;;;;;10.18;3.70;;;;;;;20.24;100.00;101656.16;5228125;28;20013;-80
2021/08/10 08:38:36;;;;;;;7.63;3.67;;;;;;;20.61;100.00;101653.84;5227264;28;20087;-80
2021/08/10 08:41:06;;;;;;;11.55;3.60;;;;;;;20.61;100.00;101649.22;5226662;28;20029;-81
2021/08/10 08:43:39;;;;;;;7.97;3.20;;;;;;;20.93;100.00;101643.88;5227435;28;20470;-82
2021/08/10 08:46:13;;;;;;;9.23;3.60;;;;;;;20.81;100.00;101651.91;5227368;28;20516;-81
2021/08/10 08:48:44;;;;;;;12.35;3.88;;;;;;;20.73;100.00;101652.13;5227590;28;20029;-80
2021/08/10 08:51:19;;;;;;;11.60;3.38;;;;;;;21.16;100.00;101655.13;5226947;28;20528;-80
2021/08/10 08:53:52;;;;;;;9.43;3.03;;;;;;;21.37;100.00;101659.44;5214018;28;20555;-82
2021/08/10 08:56:24;;;;;;;8.50;3.55;;;;;;;21.27;100.00;101650.03;5227760;28;20025;-82
2021/08/10 08:58:55;;;;;;;7.20;3.60;;;;;;;21.02;100.00;101650.75;5228140;28;20522;-81
2021/08/10 09:01:26;;;;;;;9.43;3.60;;;;;;;21.34;100.00;101659.06;5210731;28;20052;-82
2021/08/10 09:03:56;;;;;;;5.45;3.38;;;;;;;21.78;100.00;101649.13;5227923;28;20049;-81
2021/08/10 09:06:27;;;;;;;6.10;3.30;;;;;;;21.91;100.00;101660.78;5228376;28;20024;-82
2021/08/10 09:09:21;;;;;;;8.02;3.70;;;;;;;21.92;100.00;101657.00;5231304;28;20040;-82
2021/08/10 09:11:54;;;;;;;6.18;2.83;;;;;;;21.74;100.00;101651.47;5228119;28;20013;-80
2021/08/10 09:14:26;;;;;;;7.07;3.60;;;;;;;21.79;100.00;101658.97;5208657;28;20104;-82
2021/08/10 09:17:06;;;;;;;8.43;3.30;;;;;;;21.70;100.00;101653.81;5227298;28;20058;-81
2021/08/10 09:19:44;;;;;;;5.95;3.25;;;;;;;21.86;100.00;101657.88;5226716;28;20017;-81
2021/08/10 09:22:20;;;;;;;7.70;3.20;;;;;;;21.67;100.00;101651.50;5209324;28;20329;-80
2021/08/10 09:24:57;;;;;;;8.93;3.20;;;;;;;21.58;100.00;101647.34;5228162;28;20029;-83
2021/08/10 09:27:32;;;;;;;9.35;3.42;;;;;;;21.58;100.00;101658.28;5211913;28;20021;-82
2021/08/10 09:30:08;;;;;;;7.25;3.33;;;;;;;21.30;100.00;101649.59;5228211;28;20139;-80
2021/08/10 09:32:55;;;;;;;6.60;3.35;;;;;;;21.37;100.00;101656.72;5228083;28;20029;-81
2021/08/10 09:35:32;;;;;;;10.20;3.90;;;;;;;21.41;100.00;101662.59;5209663;28;20059;-81
2021/08/10 09:38:06;;;;;;;7.72;3.30;;;;;;;21.56;100.00;101659.56;5227468;28;20028;-81
2021/08/10 09:40:41;;;;;;;7.10;3.30;;;;;;;21.37;100.00;101662.19;5226714;28;20398;-81
2021/08/10 09:43:32;;;;;;;8.88;3.33;;;;;;;21.12;100.00;101661.22;5227398;28;20025;-82
2021/08/10 09:46:06;;;;;;;5.53;2.72;;;;;;;21.21;100.00;101658.03;5227299;28;20056;-82
2021/08/10 09:48:39;;;;;;;7.88;3.40;;;;;;;21.01;100.00;101651.81;5227057;28;20033;-80
2021/08/10 09:51:17;;;;;;;6.47;3.30;;;;;;;21.20;100.00;101661.81;5225812;28;20095;-80
2021/08/10 09:54:01;;;;;;;6.07;3.03;;;;;;;21.49;100.00;101656.88;5225340;28;20529;-82
2021/08/10 09:56:45;;;;;;;8.48;3.08;;;;;;;21.93;100.00;101663.28;5221236;28;20429;-80
2021/08/10 09:59:24;;;;;;;5.03;2.90;;;;;;;21.55;100.00;101658.72;5221451;28;20043;-80
2021/08/10 10:01:59;;;;;;;5.50;3.13;;;;;;;21.37;100.00;101662.19;5221589;28;20024;-87
2021/08/10 10:04:31;;;;;;;5.90;2.92;;;;;;;21.69;100.00;101654.03;5207398;28;20323;-82
2021/08/10 10:07:10;;;;;;;5.57;3.05;;;;;;;21.57;100.00;101666.69;5221693;28;20367;-83
2021/08/10 10:09:41;;;;;;;6.20;2.88;;;;;;;21.26;100.00;101659.28;5221533;28;20021;-81
2021/08/10 10:12:12;;;;;;;7.78;3.22;;;;;;;21.51;100.00;101662.94;5221760;28;20454;-83
2021/08/10 10:14:44;;;;;;;8.68;2.60;;;;;;;21.40;100.00;101669.09;5222584;28;20122;-82
2021/08/10 10:17:16;;;;;;;7.07;2.67;;;;;;;21.19;100.00;101659.31;5222195;28;20025;-84
2021/08/10 10:19:46;;;;;;;8.02;3.35;;;;;;;20.95;100.00;101663.59;5221731;28;20447;-83
2021/08/10 10:22:22;;;;;;;4.30;2.65;;;;;;;20.80;100.00;101655.69;5203440;28;20017;-81
2021/08/10 10:24:54;;;;;;;8.13;2.95;;;;;;;20.48;100.00;101653.84;5219464;28;20025;-82
2021/08/10 10:27:25;;;;;;;7.32;3.03;;;;;;;20.51;100.00;101657.00;5220185;28;20062;-85
2021/08/10 10:29:56;;;;;;;5.82;2.63;;;;;;;20.48;100.00;101662.03;5220189;28;20533;-82
2021/08/10 10:32:26;;;;;;;6.55;2.38;;;;;;;20.53;100.00;101654.88;5220479;28;20029;-81
2021/08/10 10:34:57;;;;;;;6.30;3.10;;;;;;;20.76;100.00;101657.16;5221792;28;20032;-83
2021/08/10 10:37:29;;;;;;;6.30;2.63;;;;;;;21.12;100.00;101653.03;5221213;28;20029;-80
2021/08/10 10:40:02;;;;;;;3.72;2.08;;;;;;;21.22;100.00;101647.94;5220084;28;20032;-80
2021/08/10 10:42:34;;;;;;;3.58;2.40;;;;;;;21.07;100.00;101659.13;5207112;28;20102;-83
2021/08/10 10:45:06;;;;;;;2.70;2.13;;;;;;;20.79;100.00;101664.09;5220461;28;20017;-81
2021/08/10 10:47:38;;;;;;;6.68;2.38;;;;;;;20.80;100.00;101663.03;5219911;28;20170;-80
2021/08/10 10:50:13;;;;;;;5.55;2.72;;;;;;;20.54;100.00;101659.31;5220056;28;20029;-80
2021/08/10 10:52:59;;;;;;;6.07;2.97;;;;;;;20.30;100.00;101665.38;5220261;28;20490;-84
2021/08/10 10:55:32;;;;;;;7.47;3.30;;;;;;;20.05;100.00;101673.34;5219761;28;20024;-81
2021/08/10 10:58:25;;;;;;;7.20;3.55;;;;;;;19.83;100.00;101669.97;5220523;28;20028;-82
2021/08/10 11:01:18;;;;;;;8.85;3.10;;;;;;;19.88;100.00;101671.03;5219725;28;20086;-81
2021/08/10 11:04:10;;;;;;;8.30;2.90;;;;;;;19.80;100.00;101663.06;5191323;28;20028;-81
2021/08/10 11:06:45;;;;;;;5.25;2.85;;;;;;;20.07;100.00;101661.19;5219819;28;20021;-83
2021/08/10 11:09:37;;;;;;;7.43;3.30;;;;;;;20.41;100.00;101659.28;5220290;28;20025;-81
2021/08/10 11:12:41;;;;;;;8.07;3.35;;;;;;;20.76;100.00;101672.69;5220315;28;20041;-81
2021/08/10 11:15:22;;;;;;;6.30;2.65;;;;;;;21.04;100.00;101661.47;5220326;28;20049;-82
2021/08/10 11:18:20;;;;;;;10.18;3.00;;;;;;;21.36;100.00;101659.69;5221639;28;20025;-83
2021/08/10 11:20:53;;;;;;;6.13;2.85;;;;;;;21.81;100.00;101652.25;5221314;28;20040;-81
2021/08/10 11:23:24;;;;;;;3.53;2.53;;;;;;;21.52;100.00;101659.16;5221689;28;20032;-83
2021/08/10 11:26:01;;;;;;;4.13;2.40;;;;;;;21.42;100.00;101658.81;5221742;28;20032;-81
2021/08/10 11:28:34;;;;;;;7.38;3.38;;;;;;;21.03;100.00;101657.88;5202913;28;20110;-80
2021/08/10 11:31:06;;;;;;;4.38;2.55;;;;;;;21.20;100.00;101652.81;5212469;28;20020;-82
2021/08/10 11:33:40;;;;;;;6.88;2.50;;;;;;;21.25;100.00;101652.97;5219523;28;20044;-81
2021/08/10 11:36:12;;;;;;;5.07;2.80;;;;;;;21.14;100.00;101653.69;5223775;28;20309;-81
2021/08/10 11:38:43;;;;;;;6.70;2.90;;;;;;;21.20;100.00;101653.63;5224754;28;20045;-81